createdAt,value
2018-03-20T00:02:09.003Z,77.60
2018-03-20T00:04:37.316Z,76.50
2018-03-20T00:07:05.075Z,76.40
2018-03-20T00:09:33.469Z,87.10
2018-03-20T00:12:01.846Z,87.70
2018-03-20T00:14:30.487Z,84.40
2018-03-20T00:16:58.066Z,84.50
2018-03-20T00:19:25.669Z,77.80
2018-03-20T00:21:53.192Z,75.90
2018-03-20T00:24:20.791Z,83.20
2018-03-20T00:26:48.311Z,77.70
2018-03-20T00:29:15.864Z,85.80
2018-03-20T00:31:43.408Z,82.80
2018-03-20T00:34:10.959Z,85.70
2018-03-20T00:36:38.969Z,89.60
2018-03-20T00:39:06.568Z,85.70
2018-03-20T00:41:34.928Z,86.70
2018-03-20T00:44:03.545Z,88.80
2018-03-20T00:46:31.996Z,89.60
2018-03-20T00:48:59.868Z,88.80
2018-03-20T00:51:27.514Z,89.60
2018-03-20T00:53:55.044Z,88.70
2018-03-20T00:56:22.791Z,89.40
2018-03-20T00:58:50.381Z,89.40
2018-03-20T01:01:17.916Z,88.40
2018-03-20T01:03:45.443Z,86.40
2018-03-20T01:06:12.989Z,89.40
2018-03-20T01:08:40.511Z,89.40
2018-03-20T01:11:08.794Z,89.30
2018-03-20T01:13:36.400Z,89.30
2018-03-20T01:16:03.961Z,89.90
2018-03-20T01:18:32.043Z,86.00
2018-03-20T01:20:59.736Z,88.30
2018-03-20T01:23:27.276Z,89.30
2018-03-20T01:25:54.811Z,86.60
2018-03-20T01:28:22.356Z,85.70
2018-03-20T01:30:49.942Z,88.30
2018-03-20T01:33:18.299Z,90.30
2018-03-20T01:35:45.837Z,90.30
2018-03-20T01:38:14.119Z,90.70
2018-03-20T01:40:42.416Z,86.50
2018-03-20T01:43:10.693Z,90.20
2018-03-20T01:45:38.228Z,90.10
2018-03-20T01:48:05.745Z,90.30
2018-03-20T01:50:33.414Z,88.40
2018-03-20T01:53:12.695Z,90.10
2018-03-20T01:55:40.239Z,85.10
2018-03-20T01:58:08.525Z,85.40
2018-03-20T02:00:36.842Z,86.10
2018-03-20T02:03:04.451Z,86.90
2018-03-20T02:05:32.383Z,89.80
2018-03-20T02:08:00.884Z,83.40
2018-03-20T02:10:28.516Z,83.40
2018-03-20T02:12:56.076Z,89.20
2018-03-20T02:15:23.777Z,87.00
2018-03-20T02:17:52.096Z,88.80
2018-03-20T02:20:19.623Z,88.80
2018-03-20T02:22:47.180Z,87.60
2018-03-20T02:25:15.712Z,91.10
2018-03-20T02:27:43.267Z,90.30
2018-03-20T02:30:11.553Z,90.20
2018-03-20T02:32:39.833Z,89.80
2018-03-20T02:35:07.402Z,89.90
2018-03-20T02:37:35.780Z,90.10
2018-03-20T02:40:03.462Z,88.30
2018-03-20T02:42:31.557Z,90.20
2018-03-20T02:45:00.849Z,89.70
2018-03-20T02:47:28.488Z,89.50
2018-03-20T02:49:56.044Z,91.70
2018-03-20T02:52:23.563Z,90.00
2018-03-20T02:54:51.240Z,90.80
2018-03-20T02:57:18.807Z,91.00
2018-03-20T02:59:46.337Z,92.60
2018-03-20T03:02:13.929Z,91.50
2018-03-20T03:04:41.422Z,91.40
2018-03-20T03:07:08.960Z,91.40
2018-03-20T03:09:36.636Z,92.80
2018-03-20T03:12:04.577Z,91.50
2018-03-20T03:14:32.212Z,92.20
2018-03-20T03:17:00.232Z,92.40
2018-03-20T03:19:27.803Z,91.00
2018-03-20T03:21:55.352Z,91.70
2018-03-20T03:24:22.903Z,92.60
2018-03-20T03:26:50.938Z,92.30
2018-03-20T03:29:18.503Z,91.40
2018-03-20T03:31:46.035Z,92.30
2018-03-20T03:34:13.764Z,89.60
2018-03-20T03:36:41.281Z,91.80
2018-03-20T03:39:08.808Z,86.30
2018-03-20T03:41:36.483Z,88.60
2018-03-20T03:44:04.128Z,89.20
2018-03-20T03:46:32.548Z,88.50
2018-03-20T03:49:00.410Z,88.60
2018-03-20T03:51:28.079Z,84.70
2018-03-20T03:53:56.448Z,83.00
2018-03-20T03:56:23.985Z,83.00
2018-03-20T03:58:51.543Z,83.80
2018-03-20T04:01:19.156Z,82.30
2018-03-20T04:03:47.368Z,82.30
2018-03-20T04:06:15.670Z,83.60
2018-03-20T04:08:43.200Z,83.50
2018-03-20T04:11:10.769Z,84.40
2018-03-20T04:13:38.308Z,84.40
2018-03-20T04:16:06.644Z,86.30
2018-03-20T04:18:35.079Z,86.00
2018-03-20T04:21:02.744Z,85.90
2018-03-20T04:23:30.405Z,86.00
2018-03-20T04:25:57.922Z,86.80
2018-03-20T04:28:25.497Z,87.20
2018-03-20T04:30:53.041Z,86.40
2018-03-20T04:33:20.919Z,87.30
2018-03-20T04:35:48.587Z,90.10
2018-03-20T04:38:16.846Z,90.20
2018-03-20T04:40:45.159Z,88.20
2018-03-20T04:43:12.678Z,88.20
2018-03-20T04:45:40.213Z,89.20
2018-03-20T04:48:07.770Z,88.50
2018-03-20T04:50:35.491Z,89.70
2018-03-20T04:53:03.659Z,89.80
2018-03-20T04:55:32.077Z,90.90
2018-03-20T04:58:00.485Z,91.00
2018-03-20T05:00:28.832Z,89.70
2018-03-20T05:02:56.373Z,89.60
2018-03-20T05:05:23.932Z,92.00
2018-03-20T05:07:51.495Z,92.30
2018-03-20T05:10:19.864Z,94.10
2018-03-20T05:12:47.412Z,94.10
2018-03-20T05:15:14.935Z,94.50
2018-03-20T05:17:45.464Z,95.60
2018-03-20T05:28:37.821Z,97.20
2018-03-20T05:31:06.276Z,98.10
2018-03-20T05:33:33.912Z,98.20
2018-03-20T05:36:01.525Z,98.60
2018-03-20T05:38:29.327Z,98.70
2018-03-20T05:40:56.856Z,98.50
2018-03-20T05:43:25.095Z,99.40
2018-03-20T05:45:52.665Z,99.10
2018-03-20T05:51:24.660Z,99.40
2018-03-20T05:53:52.948Z,99.40
2018-03-20T05:56:21.363Z,99.90
2018-03-20T05:58:48.918Z,99.90
2018-03-20T06:01:16.460Z,99.60
2018-03-20T06:03:44.004Z,99.90
2018-03-20T06:06:11.527Z,99.90
2018-03-20T06:08:39.084Z,99.90
2018-03-20T06:11:06.651Z,99.90
2018-03-20T06:13:34.224Z,99.90
2018-03-20T06:16:02.546Z,99.90
2018-03-20T06:18:30.107Z,99.90
2018-03-20T06:20:58.778Z,99.90
2018-03-20T06:23:27.185Z,99.90
2018-03-20T06:25:55.464Z,99.90
2018-03-20T06:28:23.107Z,99.90
2018-03-20T06:30:50.747Z,99.90
2018-03-20T06:33:18.272Z,99.90
2018-03-20T06:35:45.852Z,99.90
2018-03-20T06:38:13.364Z,99.90
2018-03-20T06:40:40.895Z,99.90
2018-03-20T06:43:08.422Z,99.90
2018-03-20T06:45:36.041Z,99.90
2018-03-20T06:48:03.653Z,99.90
2018-03-20T06:50:32.323Z,99.90
2018-03-20T06:53:00.304Z,99.90
2018-03-20T06:55:29.269Z,99.90
2018-03-20T06:57:56.824Z,99.90
2018-03-20T07:00:24.361Z,99.90
2018-03-20T07:02:51.904Z,99.90
2018-03-20T07:05:20.356Z,99.90
2018-03-20T07:07:47.954Z,99.90
2018-03-20T07:10:15.500Z,99.90
2018-03-20T07:12:43.040Z,99.90
2018-03-20T07:15:10.560Z,99.90
2018-03-20T07:17:38.095Z,99.90
2018-03-20T07:20:05.804Z,99.90
2018-03-20T07:22:33.391Z,99.90
2018-03-20T07:25:01.066Z,99.90
2018-03-20T07:27:28.740Z,99.90
2018-03-20T07:29:56.287Z,99.90
2018-03-20T07:32:23.828Z,99.90
2018-03-20T07:34:51.465Z,99.90
2018-03-20T07:37:19.868Z,99.90
2018-03-20T07:39:47.482Z,99.90
2018-03-20T07:42:14.996Z,99.90
2018-03-20T07:44:43.303Z,99.90
2018-03-20T07:47:11.584Z,99.90
2018-03-20T07:49:39.889Z,99.90
2018-03-20T07:52:07.484Z,99.90
2018-03-20T07:54:35.085Z,99.90
2018-03-20T07:57:02.863Z,99.90
2018-03-20T07:59:30.568Z,99.90
2018-03-20T08:01:58.200Z,99.90
2018-03-20T08:04:25.735Z,99.90
2018-03-20T08:06:53.293Z,99.90
2018-03-20T08:09:20.936Z,99.90
2018-03-20T08:11:49.347Z,99.90
2018-03-20T08:14:16.867Z,99.90
2018-03-20T08:16:44.391Z,99.90
2018-03-20T08:19:12.698Z,99.90
2018-03-20T08:21:40.220Z,99.90
2018-03-20T08:24:07.812Z,99.90
2018-03-20T08:26:35.490Z,99.90
2018-03-20T08:29:04.017Z,99.90
2018-03-20T08:31:31.680Z,99.90
2018-03-20T08:34:00.399Z,99.90
2018-03-20T08:36:27.931Z,99.90
2018-03-20T08:38:55.503Z,99.90
2018-03-20T08:41:23.815Z,99.90
2018-03-20T08:43:51.455Z,99.90
2018-03-20T08:46:19.108Z,99.90
2018-03-20T08:48:46.625Z,99.90
2018-03-20T08:51:14.173Z,99.90
2018-03-20T08:53:42.472Z,99.90
2018-03-20T08:56:10.787Z,99.90
2018-03-20T08:58:38.307Z,99.90
2018-03-20T09:01:05.948Z,99.90
2018-03-20T09:03:33.826Z,99.90
2018-03-20T09:06:01.591Z,99.90
2018-03-20T09:08:29.518Z,99.90
2018-03-20T09:10:57.052Z,99.90
2018-03-20T09:13:24.610Z,99.90
2018-03-20T09:15:52.153Z,99.90
2018-03-20T09:18:19.717Z,99.90
2018-03-20T09:20:48.045Z,99.90
2018-03-20T09:23:15.626Z,99.90
2018-03-20T09:25:43.183Z,99.90
2018-03-20T09:28:10.692Z,99.90
2018-03-20T09:30:38.236Z,99.70
2018-03-20T09:33:06.678Z,97.80
2018-03-20T09:35:35.533Z,97.80
2018-03-20T09:38:03.435Z,97.80
2018-03-20T09:40:31.853Z,96.70
2018-03-20T09:43:04.155Z,96.00
2018-03-20T09:45:31.967Z,95.90
2018-03-20T09:48:00.499Z,95.10
2018-03-20T09:50:28.196Z,95.10
2018-03-20T09:52:55.800Z,94.40
2018-03-20T09:55:23.365Z,95.40
2018-03-20T09:57:50.956Z,94.90
2018-03-20T10:00:18.481Z,94.70
2018-03-20T10:02:46.875Z,93.60
2018-03-20T10:05:15.220Z,93.10
2018-03-20T10:07:42.738Z,93.00
2018-03-20T10:10:10.292Z,91.60
2018-03-20T10:12:37.811Z,92.50
2018-03-20T10:15:05.439Z,91.10
2018-03-20T10:17:33.805Z,90.20
2018-03-20T10:20:02.730Z,88.40
2018-03-20T10:22:30.590Z,88.30
2018-03-20T10:24:58.343Z,86.90
2018-03-20T10:27:26.838Z,85.70
2018-03-20T10:29:54.380Z,81.40
2018-03-20T10:32:21.934Z,82.50
2018-03-20T10:34:49.489Z,80.40
2018-03-20T10:37:17.045Z,84.80
2018-03-20T10:39:44.552Z,80.00
2018-03-20T10:42:12.095Z,69.90
2018-03-20T10:44:40.379Z,71.70
2018-03-20T10:47:08.698Z,77.10
2018-03-20T10:49:36.323Z,77.10
2018-03-20T10:52:04.779Z,75.80
2018-03-20T10:54:32.324Z,75.60
2018-03-20T10:56:59.943Z,74.80
2018-03-20T10:59:27.475Z,70.00
2018-03-20T11:01:55.028Z,71.00
2018-03-20T11:04:23.422Z,76.00
2018-03-20T11:06:50.953Z,76.00
2018-03-20T11:09:18.490Z,68.20
2018-03-20T11:11:46.018Z,62.30
2018-03-20T11:14:14.329Z,61.30
2018-03-20T11:16:42.608Z,56.20
2018-03-20T11:19:10.933Z,62.20
2018-03-20T11:21:38.449Z,62.10
2018-03-20T11:24:06.039Z,58.20
2018-03-20T11:26:34.207Z,54.50
2018-03-20T11:29:02.633Z,58.00
2018-03-20T11:31:30.428Z,58.10
2018-03-20T11:33:58.898Z,55.30
2018-03-20T11:36:26.477Z,55.20
2018-03-20T11:38:54.000Z,52.50
2018-03-20T11:41:21.536Z,52.40
2018-03-20T11:43:49.048Z,53.00
2018-03-20T11:46:16.620Z,51.50
2018-03-20T11:48:44.149Z,50.50
2018-03-20T11:51:11.762Z,49.80
2018-03-20T11:53:40.094Z,51.10
2018-03-20T11:56:07.690Z,50.60
2018-03-20T11:58:35.283Z,52.20
2018-03-20T12:01:02.972Z,49.60
2018-03-20T12:03:31.400Z,45.70
2018-03-20T12:05:59.018Z,45.60
2018-03-20T12:08:38.456Z,48.20
2018-03-20T12:11:06.012Z,51.60
2018-03-20T12:13:33.726Z,44.50
2018-03-20T12:16:01.292Z,44.60
2018-03-20T12:18:29.733Z,41.80
2018-03-20T12:20:57.294Z,41.60
2018-03-20T12:23:24.845Z,42.00
2018-03-20T12:25:53.180Z,42.60
2018-03-20T12:28:20.713Z,42.50
2018-03-20T12:30:49.019Z,42.50
2018-03-20T12:33:16.543Z,42.50
2018-03-20T12:35:44.080Z,41.70
2018-03-20T12:38:11.612Z,42.20
2018-03-20T12:40:39.960Z,42.10
2018-03-20T12:43:07.520Z,42.00
2018-03-20T12:45:35.195Z,39.10
2018-03-20T12:48:02.848Z,38.80
2018-03-20T12:50:30.541Z,39.90
2018-03-20T12:52:58.128Z,41.00
2018-03-20T12:55:25.741Z,40.40
2018-03-20T12:57:54.056Z,39.30
2018-03-20T13:00:21.667Z,39.30
2018-03-20T13:02:49.396Z,36.50
2018-03-20T13:05:16.988Z,37.70
2018-03-20T13:07:44.529Z,37.70
2018-03-20T13:10:13.541Z,36.80
2018-03-20T13:12:41.079Z,36.80
2018-03-20T13:15:08.606Z,36.70
2018-03-20T13:17:36.138Z,39.80
2018-03-20T13:20:04.540Z,37.30
2018-03-20T13:22:32.167Z,37.40
2018-03-20T13:24:59.889Z,38.00
2018-03-20T13:27:27.438Z,38.10
2018-03-20T13:29:55.060Z,36.50
2018-03-20T13:32:22.680Z,35.80
2018-03-20T13:34:51.081Z,37.30
2018-03-20T13:37:18.625Z,37.20
2018-03-20T13:39:46.961Z,35.90
2018-03-20T13:42:14.503Z,36.10
2018-03-20T13:44:42.017Z,35.40
2018-03-20T13:47:13.108Z,36.20
2018-03-20T13:49:40.628Z,36.80
2018-03-20T13:52:09.081Z,34.60
2018-03-20T13:54:37.759Z,37.40
2018-03-20T13:57:05.409Z,35.10
2018-03-20T13:59:33.017Z,36.90
2018-03-20T14:02:01.579Z,35.30
2018-03-20T14:04:30.309Z,33.40
2018-03-20T14:06:58.735Z,34.30
2018-03-20T14:09:27.097Z,36.10
2018-03-20T14:11:54.607Z,36.20
2018-03-20T14:14:22.183Z,33.90
2018-03-20T14:16:49.768Z,33.60
2018-03-20T14:19:17.317Z,33.60
2018-03-20T14:21:44.853Z,35.00
2018-03-20T14:24:12.386Z,33.70
2018-03-20T14:26:39.912Z,36.20
2018-03-20T14:29:07.507Z,38.50
2018-03-20T14:31:35.284Z,34.70
2018-03-20T14:34:03.219Z,35.30
2018-03-20T14:36:31.656Z,35.70
2018-03-20T14:39:00.123Z,36.40
2018-03-20T14:41:28.928Z,35.10
2018-03-20T14:43:56.490Z,34.90
2018-03-20T14:46:24.046Z,36.80
2018-03-20T14:48:51.540Z,39.00
2018-03-20T14:51:19.965Z,36.20
2018-03-20T14:53:47.488Z,36.00
2018-03-20T14:56:15.827Z,37.70
2018-03-20T14:58:43.340Z,37.90
2018-03-20T15:01:10.893Z,36.40
2018-03-20T15:03:38.409Z,37.80
2018-03-20T15:06:06.357Z,36.20
2018-03-20T15:08:33.905Z,35.70
2018-03-20T15:11:01.486Z,33.60
2018-03-20T15:13:29.118Z,34.10
2018-03-20T15:15:56.648Z,36.20
2018-03-20T15:18:24.253Z,36.60
2018-03-20T15:20:51.735Z,38.10
2018-03-20T15:23:19.520Z,37.10
2018-03-20T15:25:47.039Z,36.20
2018-03-20T15:28:14.572Z,35.20
2018-03-20T15:30:42.080Z,35.70
2018-03-20T15:33:10.457Z,35.60
2018-03-20T15:35:38.040Z,37.40
2018-03-20T15:38:05.564Z,35.40
2018-03-20T15:40:33.242Z,37.30
2018-03-20T15:43:00.916Z,37.30
2018-03-20T15:45:29.324Z,36.60
2018-03-20T15:47:56.844Z,36.60
2018-03-20T15:50:24.382Z,37.40
2018-03-20T15:52:52.058Z,37.00
2018-03-20T15:55:19.831Z,37.60
2018-03-20T15:57:47.365Z,36.30
2018-03-20T16:00:14.883Z,37.20
2018-03-20T16:02:42.706Z,35.30
2018-03-20T16:05:10.224Z,36.20
2018-03-20T16:07:37.732Z,38.60
2018-03-20T16:10:05.373Z,39.80
2018-03-20T16:12:33.862Z,37.70
2018-03-20T16:15:01.484Z,38.10
2018-03-20T16:17:29.194Z,35.70
2018-03-20T16:19:56.738Z,34.70
2018-03-20T16:22:24.247Z,34.80
2018-03-20T16:24:51.939Z,36.80
2018-03-20T16:27:20.513Z,37.70
2018-03-20T16:29:48.043Z,37.90
2018-03-20T16:32:15.576Z,39.20
2018-03-20T16:34:43.868Z,38.90
2018-03-20T16:37:12.220Z,38.00
2018-03-20T16:39:39.743Z,37.90
2018-03-20T16:42:07.243Z,39.30
2018-03-20T16:44:34.841Z,40.50
2018-03-20T16:47:02.687Z,39.60
2018-03-20T16:49:30.523Z,40.00
2018-03-20T16:51:58.101Z,40.10
2018-03-20T16:54:25.694Z,39.10
2018-03-20T16:56:53.243Z,39.50
2018-03-20T16:59:21.617Z,38.20
2018-03-20T17:01:49.354Z,38.00
2018-03-20T17:04:16.877Z,40.50
2018-03-20T17:06:45.145Z,39.90
2018-03-20T17:09:12.677Z,39.70
2018-03-20T17:11:40.191Z,39.10
2018-03-20T17:14:07.729Z,40.30
2018-03-20T17:16:35.324Z,41.10
2018-03-20T17:19:02.877Z,39.10
2018-03-20T17:21:30.669Z,40.90
2018-03-20T17:23:58.298Z,40.70
2018-03-20T17:26:25.856Z,40.90
2018-03-20T17:28:53.384Z,41.90
2018-03-20T17:31:21.028Z,42.00
2018-03-20T17:33:48.593Z,42.40
2018-03-20T17:36:16.122Z,43.30
2018-03-20T17:38:44.433Z,43.00
2018-03-20T17:41:11.948Z,43.00
2018-03-20T17:43:39.456Z,43.00
2018-03-20T17:46:07.762Z,44.90
2018-03-20T17:48:35.327Z,44.90
2018-03-20T17:51:03.020Z,43.00
2018-03-20T17:53:30.664Z,42.20
2018-03-20T17:55:58.272Z,43.20
2018-03-20T17:58:26.040Z,44.60
2018-03-20T18:00:53.559Z,44.20
2018-03-20T18:03:21.305Z,44.60
2018-03-20T18:05:48.868Z,45.30
2018-03-20T18:08:16.440Z,45.70
2018-03-20T18:10:43.966Z,46.30
2018-03-20T18:13:12.247Z,47.10
2018-03-20T18:15:39.792Z,47.00
2018-03-20T18:18:08.109Z,47.40
2018-03-20T18:20:36.507Z,47.60
2018-03-20T18:23:04.862Z,48.00
2018-03-20T18:25:32.415Z,48.00
2018-03-20T18:28:00.408Z,48.80
2018-03-20T18:30:28.828Z,49.40
2018-03-20T18:32:56.372Z,49.40
2018-03-20T18:35:23.891Z,48.50
2018-03-20T18:37:52.505Z,49.60
2018-03-20T18:40:20.116Z,49.60
2018-03-20T18:42:47.685Z,49.50
2018-03-20T18:45:15.325Z,48.80
2018-03-20T18:47:42.890Z,49.30
2018-03-20T18:50:10.427Z,50.10
2018-03-20T18:52:38.708Z,50.90
2018-03-20T18:55:06.323Z,50.50
2018-03-20T18:57:34.225Z,49.90
2018-03-20T19:00:01.967Z,50.50
2018-03-20T19:02:29.701Z,50.40
2018-03-20T19:04:57.235Z,51.10
2018-03-20T19:07:24.786Z,50.90
2018-03-20T19:09:52.395Z,52.10
2018-03-20T19:12:20.000Z,52.50
2018-03-20T19:14:48.360Z,50.80
2018-03-20T19:17:15.925Z,50.70
2018-03-20T19:19:43.463Z,51.70
2018-03-20T19:22:10.993Z,51.00
2018-03-20T19:24:38.533Z,52.10
2018-03-20T19:27:06.116Z,53.00
2018-03-20T19:29:34.780Z,52.40
2018-03-20T19:32:02.533Z,52.30
2018-03-20T19:34:30.216Z,51.50
2018-03-20T19:36:57.789Z,52.50
2018-03-20T19:39:25.450Z,53.70
2018-03-20T19:41:53.791Z,54.30
2018-03-20T19:44:25.011Z,54.30
2018-03-20T19:46:52.632Z,55.10
2018-03-20T19:49:20.279Z,55.00
2018-03-20T19:51:47.852Z,56.40
2018-03-20T19:54:15.495Z,56.10
2018-03-20T19:56:43.146Z,55.60
2018-03-20T19:59:11.513Z,56.40
2018-03-20T20:01:39.068Z,56.40
2018-03-20T20:04:07.484Z,57.90
2018-03-20T20:06:35.051Z,57.80
2018-03-20T20:09:02.660Z,57.30
2018-03-20T20:11:31.000Z,58.70
2018-03-20T20:13:58.698Z,58.70
2018-03-20T20:16:26.270Z,58.50
2018-03-20T20:18:53.797Z,59.40
2018-03-20T20:21:21.357Z,60.20
2018-03-20T20:23:48.948Z,59.60
2018-03-20T20:26:16.516Z,59.30
2018-03-20T20:28:44.092Z,65.00
2018-03-20T20:31:11.628Z,61.30
2018-03-20T20:33:40.005Z,62.40
2018-03-20T20:36:08.301Z,62.60
2018-03-20T20:38:36.628Z,65.50
2018-03-20T20:41:04.173Z,65.30
2018-03-20T20:43:31.875Z,64.90
2018-03-20T20:45:59.575Z,65.80
2018-03-20T20:48:27.103Z,67.10
2018-03-20T20:50:54.629Z,67.20
2018-03-20T20:53:22.173Z,63.30
2018-03-20T20:55:49.785Z,66.20
2018-03-20T20:58:18.746Z,66.70
2018-03-20T21:00:46.312Z,65.70
2018-03-20T21:03:13.858Z,68.90
2018-03-20T21:05:41.385Z,65.40
2018-03-20T21:08:08.922Z,69.10
2018-03-20T21:10:36.436Z,69.60
2018-03-20T21:13:04.143Z,69.40
2018-03-20T21:15:31.774Z,69.60
2018-03-20T21:17:59.411Z,71.20
2018-03-20T21:20:26.946Z,72.10
2018-03-20T21:22:55.229Z,73.80
2018-03-20T21:25:22.782Z,73.60
2018-03-20T21:27:50.426Z,74.10
2018-03-20T21:30:17.975Z,74.90
2018-03-20T21:32:45.539Z,76.30
2018-03-20T21:35:13.091Z,76.30
2018-03-20T21:37:42.326Z,79.00
2018-03-20T21:40:09.862Z,78.90
2018-03-20T21:42:37.399Z,77.80
2018-03-20T21:45:05.058Z,80.20
2018-03-20T21:47:33.186Z,78.60
2018-03-20T21:50:00.816Z,79.20
2018-03-20T21:52:28.479Z,80.60
2018-03-20T21:54:55.999Z,78.90
2018-03-20T21:57:23.525Z,80.80
2018-03-20T21:59:51.704Z,81.20
2018-03-20T22:02:19.686Z,81.10
2018-03-20T22:04:47.237Z,81.00
2018-03-20T22:07:14.752Z,80.70
2018-03-20T22:09:42.281Z,81.20
2018-03-20T22:12:09.786Z,82.40
2018-03-20T22:14:37.328Z,83.90
2018-03-20T22:17:04.973Z,83.20
2018-03-20T22:19:33.396Z,83.30
2018-03-20T22:22:01.038Z,83.30
2018-03-20T22:24:29.052Z,84.30
2018-03-20T22:26:56.653Z,82.80
2018-03-20T22:29:25.123Z,81.70
2018-03-20T22:31:52.664Z,82.90
2018-03-20T22:34:21.051Z,83.80
2018-03-20T22:36:49.343Z,84.20
2018-03-20T22:39:16.861Z,84.20
2018-03-20T22:41:44.398Z,84.10
2018-03-20T22:44:12.057Z,83.20
2018-03-20T22:46:39.604Z,84.00
2018-03-20T22:49:07.916Z,84.60
2018-03-20T22:51:37.049Z,83.70
2018-03-20T22:54:04.663Z,83.80
2018-03-20T22:56:33.364Z,83.90
2018-03-20T22:59:01.325Z,83.90
2018-03-20T23:01:28.951Z,84.40
2018-03-20T23:03:56.632Z,85.40
2018-03-20T23:06:24.136Z,84.00
2018-03-20T23:08:51.892Z,86.00
2018-03-20T23:11:19.460Z,86.40
2018-03-20T23:13:46.994Z,87.40
2018-03-20T23:16:14.529Z,86.80
2018-03-20T23:18:42.031Z,86.00
2018-03-20T23:21:09.569Z,86.70
2018-03-20T23:23:37.129Z,86.70
2018-03-20T23:26:04.825Z,87.20
2018-03-20T23:28:32.427Z,87.30
2018-03-20T23:31:00.136Z,86.60
2018-03-20T23:33:28.837Z,88.40
2018-03-20T23:35:56.389Z,87.70
2018-03-20T23:38:23.920Z,90.50
2018-03-20T23:40:51.448Z,88.80
2018-03-20T23:43:19.108Z,88.30
2018-03-20T23:45:46.629Z,90.10
2018-03-20T23:48:14.162Z,89.50
2018-03-20T23:50:41.704Z,88.00
2018-03-20T23:53:09.981Z,88.50
2018-03-20T23:55:37.517Z,88.50
2018-03-20T23:58:05.284Z,88.70
